createdAt,value
2018-06-30T00:00:53.504Z,10.30
2018-06-30T00:03:25.047Z,10.37
2018-06-30T00:05:53.608Z,11.30
2018-06-30T00:08:22.179Z,10.57
2018-06-30T00:10:50.668Z,10.33
2018-06-30T00:13:19.253Z,11.30
2018-06-30T00:15:47.787Z,10.50
2018-06-30T00:18:16.374Z,10.70
2018-06-30T00:20:44.915Z,11.20
2018-06-30T00:23:13.468Z,11.13
2018-06-30T00:25:42.015Z,10.83
2018-06-30T00:28:10.553Z,10.50
2018-06-30T00:30:39.170Z,10.10
2018-06-30T00:33:07.696Z,9.67
2018-06-30T00:35:36.251Z,10.27
2018-06-30T00:38:04.808Z,10.00
2018-06-30T00:40:33.372Z,10.57
2018-06-30T00:43:01.850Z,9.40
2018-06-30T00:45:30.396Z,9.90
2018-06-30T00:47:58.976Z,9.17
2018-06-30T00:50:27.558Z,10.33
2018-06-30T00:52:56.127Z,9.47
2018-06-30T00:55:24.373Z,7.93
2018-06-30T00:57:52.925Z,9.40
2018-06-30T01:00:21.478Z,10.30
2018-06-30T01:02:50.012Z,9.13
2018-06-30T01:05:18.551Z,8.87
2018-06-30T01:07:47.108Z,10.37
2018-06-30T01:10:15.685Z,8.77
2018-06-30T01:12:44.233Z,10.27
2018-06-30T01:15:12.720Z,10.77
2018-06-30T01:17:41.259Z,11.53
2018-06-30T01:20:09.861Z,9.70
2018-06-30T01:22:38.420Z,11.40
2018-06-30T01:25:06.951Z,8.73
2018-06-30T01:27:35.493Z,9.33
2018-06-30T01:30:04.487Z,9.90
2018-06-30T01:32:32.973Z,8.50
2018-06-30T01:35:01.533Z,9.23
2018-06-30T01:37:30.074Z,9.00
2018-06-30T01:39:58.686Z,8.67
2018-06-30T01:42:27.209Z,9.20
2018-06-30T01:44:55.737Z,8.67
2018-06-30T01:47:24.267Z,10.67
2018-06-30T01:49:52.813Z,9.40
2018-06-30T01:52:21.546Z,9.13
2018-06-30T01:54:50.128Z,9.17
2018-06-30T01:57:18.666Z,9.00
2018-06-30T01:59:47.174Z,11.90
2018-06-30T02:02:15.780Z,10.63
2018-06-30T02:04:44.333Z,9.00
2018-06-30T02:07:12.887Z,9.90
2018-06-30T02:09:41.457Z,9.20
2018-06-30T02:12:09.979Z,10.33
2018-06-30T02:14:38.571Z,10.00
2018-06-30T02:17:07.201Z,11.27
2018-06-30T02:19:35.743Z,11.00
2018-06-30T02:22:04.311Z,10.10
2018-06-30T02:24:32.846Z,9.40
2018-06-30T02:27:02.601Z,9.13
2018-06-30T02:29:31.133Z,9.57
2018-06-30T02:31:59.675Z,7.83
2018-06-30T02:34:28.214Z,6.80
2018-06-30T02:36:56.766Z,9.80
2018-06-30T02:39:25.320Z,9.97
2018-06-30T02:41:53.847Z,8.33
2018-06-30T02:44:22.391Z,7.70
2018-06-30T02:46:51.018Z,7.10
2018-06-30T02:49:19.560Z,7.83
2018-06-30T02:51:48.061Z,6.80
2018-06-30T02:54:16.590Z,7.07
2018-06-30T02:56:45.118Z,7.93
2018-06-30T02:59:13.668Z,6.50
2018-06-30T03:01:42.204Z,7.33
2018-06-30T03:04:10.781Z,7.30
2018-06-30T03:06:39.331Z,6.73
2018-06-30T03:09:09.483Z,9.90
2018-06-30T03:11:38.060Z,10.07
2018-06-30T03:14:06.633Z,9.70
2018-06-30T03:16:35.208Z,10.27
2018-06-30T03:19:03.805Z,10.33
2018-06-30T03:21:32.398Z,10.77
2018-06-30T03:24:00.954Z,9.80
2018-06-30T03:26:29.548Z,14.53
2018-06-30T03:28:58.133Z,11.63
2018-06-30T03:31:26.751Z,13.77
2018-06-30T03:33:55.279Z,11.77
2018-06-30T03:36:23.862Z,11.00
2018-06-30T03:38:52.424Z,8.43
2018-06-30T03:41:20.969Z,7.87
2018-06-30T03:43:49.477Z,7.47
2018-06-30T03:46:18.035Z,7.90
2018-06-30T03:48:46.578Z,7.47
2018-06-30T03:51:15.073Z,6.90
2018-06-30T03:53:43.621Z,7.20
2018-06-30T03:56:12.154Z,7.63
2018-06-30T03:58:40.650Z,7.40
2018-06-30T04:01:09.224Z,7.50
2018-06-30T04:03:37.787Z,8.97
2018-06-30T04:06:06.348Z,8.43
2018-06-30T04:08:34.921Z,8.03
2018-06-30T04:11:03.501Z,8.70
2018-06-30T04:13:32.051Z,8.87
2018-06-30T04:16:00.647Z,8.17
2018-06-30T04:18:29.212Z,8.20
2018-06-30T04:20:57.774Z,8.33
2018-06-30T04:23:26.319Z,8.03
2018-06-30T04:25:54.869Z,9.10
2018-06-30T04:28:23.398Z,8.67
2018-06-30T04:30:51.974Z,8.77
2018-06-30T04:33:20.514Z,6.90
2018-06-30T04:35:48.993Z,7.70
2018-06-30T04:38:17.564Z,7.60
2018-06-30T04:40:46.035Z,7.00
2018-06-30T04:43:14.598Z,7.73
2018-06-30T04:45:43.160Z,6.57
2018-06-30T04:48:11.667Z,7.00
2018-06-30T04:50:40.254Z,7.33
2018-06-30T04:53:08.844Z,7.23
2018-06-30T04:55:37.413Z,7.07
2018-06-30T04:58:06.070Z,6.20
2018-06-30T05:00:34.668Z,6.60
2018-06-30T05:03:02.852Z,6.13
2018-06-30T05:05:31.393Z,7.40
2018-06-30T05:07:59.890Z,8.30
2018-06-30T05:10:28.403Z,8.70
2018-06-30T05:12:57.050Z,8.20
2018-06-30T05:15:25.444Z,9.07
2018-06-30T05:17:53.917Z,9.90
2018-06-30T05:20:22.440Z,10.57
2018-06-30T05:22:50.963Z,10.43
2018-06-30T05:25:19.461Z,9.40
2018-06-30T05:27:47.967Z,10.17
2018-06-30T05:30:16.516Z,11.00
2018-06-30T05:32:45.048Z,9.90
2018-06-30T05:35:13.546Z,10.67
2018-06-30T05:37:42.071Z,11.87
2018-06-30T05:40:10.571Z,11.20
2018-06-30T05:42:39.158Z,14.77
2018-06-30T05:45:07.707Z,12.10
2018-06-30T05:47:36.222Z,10.60
2018-06-30T05:50:04.532Z,10.17
2018-06-30T05:52:33.061Z,9.03
2018-06-30T05:55:01.598Z,10.03
2018-06-30T05:57:30.080Z,11.13
2018-06-30T05:59:58.624Z,9.40
2018-06-30T06:02:27.340Z,10.40
2018-06-30T06:04:56.050Z,10.00
2018-06-30T06:07:24.604Z,9.20
2018-06-30T06:09:53.296Z,9.03
2018-06-30T06:12:21.769Z,8.60
2018-06-30T06:14:50.269Z,7.77
2018-06-30T06:17:18.836Z,8.90
2018-06-30T06:19:47.404Z,8.37
2018-06-30T06:22:16.356Z,7.67
2018-06-30T06:24:44.894Z,7.70
2018-06-30T06:27:13.428Z,8.13
2018-06-30T06:29:41.991Z,6.60
2018-06-30T06:32:10.499Z,7.70
2018-06-30T06:34:39.064Z,7.73
2018-06-30T06:37:07.626Z,6.57
2018-06-30T06:39:36.116Z,7.17
2018-06-30T06:42:04.685Z,6.13
2018-06-30T06:44:33.230Z,6.37
2018-06-30T06:47:01.733Z,6.60
2018-06-30T06:49:30.219Z,7.07
2018-06-30T06:51:58.818Z,6.80
2018-06-30T06:54:27.366Z,6.83
2018-06-30T06:56:55.867Z,6.40
2018-06-30T06:59:24.362Z,6.70
2018-06-30T07:01:52.839Z,5.33
2018-06-30T07:04:21.314Z,6.10
2018-06-30T07:06:49.853Z,6.10
2018-06-30T07:09:18.351Z,5.50
2018-06-30T07:11:46.855Z,6.20
2018-06-30T07:14:15.394Z,5.63
2018-06-30T07:16:43.885Z,5.00
2018-06-30T07:19:12.383Z,6.77
2018-06-30T07:21:40.914Z,6.40
2018-06-30T07:24:09.572Z,6.37
2018-06-30T07:26:38.056Z,6.03
2018-06-30T07:29:06.595Z,7.10
2018-06-30T07:31:35.071Z,6.67
2018-06-30T07:34:03.592Z,5.70
2018-06-30T07:36:32.128Z,5.40
2018-06-30T07:39:00.604Z,6.43
2018-06-30T07:41:29.065Z,6.30
2018-06-30T07:43:57.609Z,6.33
2018-06-30T07:46:26.081Z,6.60
2018-06-30T07:48:54.559Z,6.20
2018-06-30T07:51:23.147Z,5.70
2018-06-30T07:53:51.637Z,6.10
2018-06-30T07:56:20.111Z,5.90
2018-06-30T07:58:48.700Z,6.00
2018-06-30T08:01:17.187Z,5.97
2018-06-30T08:03:45.673Z,6.47
2018-06-30T08:06:14.167Z,6.00
2018-06-30T08:08:42.630Z,5.93
2018-06-30T08:11:11.141Z,5.83
2018-06-30T08:13:39.648Z,6.47
2018-06-30T08:16:08.205Z,6.43
2018-06-30T08:18:36.700Z,6.00
2018-06-30T08:21:05.342Z,6.40
2018-06-30T08:23:33.791Z,6.50
2018-06-30T08:26:02.301Z,5.77
2018-06-30T08:28:30.795Z,5.37
2018-06-30T08:30:59.279Z,5.50
2018-06-30T08:33:27.938Z,6.70
2018-06-30T08:35:56.469Z,5.60
2018-06-30T08:38:25.020Z,6.47
2018-06-30T08:40:53.548Z,5.90
2018-06-30T08:43:22.047Z,5.83
2018-06-30T08:45:50.609Z,5.43
2018-06-30T08:48:19.096Z,5.50
2018-06-30T08:50:47.628Z,6.17
2018-06-30T08:53:16.172Z,6.33
2018-06-30T08:55:49.723Z,5.90
2018-06-30T08:58:18.247Z,6.00
2018-06-30T09:00:46.848Z,5.83
2018-06-30T09:03:15.557Z,6.50
2018-06-30T09:05:44.082Z,6.30
2018-06-30T09:08:12.561Z,6.00
2018-06-30T09:10:41.093Z,6.50
2018-06-30T09:13:09.632Z,7.23
2018-06-30T09:15:38.136Z,6.40
2018-06-30T09:18:06.890Z,7.20
2018-06-30T09:20:35.410Z,6.17
2018-06-30T09:23:03.970Z,5.87
2018-06-30T09:25:32.586Z,6.10
2018-06-30T09:28:01.134Z,5.40
2018-06-30T09:30:33.402Z,5.60
2018-06-30T09:33:02.014Z,6.20
2018-06-30T09:35:30.492Z,6.20
2018-06-30T09:37:59.097Z,6.53
2018-06-30T09:40:27.552Z,6.10
2018-06-30T09:42:56.046Z,5.90
2018-06-30T09:45:24.603Z,6.10
2018-06-30T09:47:53.079Z,5.63
2018-06-30T09:50:21.630Z,6.60
2018-06-30T09:52:50.170Z,6.37
2018-06-30T09:55:18.688Z,6.53
2018-06-30T09:57:47.176Z,5.67
2018-06-30T10:00:21.048Z,5.30
2018-06-30T10:02:49.548Z,5.40
2018-06-30T10:05:18.083Z,7.27
2018-06-30T10:07:46.654Z,6.00
2018-06-30T10:10:15.152Z,5.63
2018-06-30T10:12:43.904Z,6.23
2018-06-30T10:15:12.441Z,6.00
2018-06-30T10:17:41.008Z,6.10
2018-06-30T10:20:09.547Z,6.13
2018-06-30T10:22:38.068Z,6.00
2018-06-30T10:25:06.597Z,5.47
2018-06-30T10:27:35.093Z,5.80
2018-06-30T10:30:03.730Z,6.10
2018-06-30T10:32:32.277Z,5.67
2018-06-30T10:35:00.777Z,6.30
2018-06-30T10:37:29.363Z,5.80
2018-06-30T10:39:57.852Z,5.20
2018-06-30T10:42:29.293Z,4.97
2018-06-30T10:44:57.844Z,5.67
2018-06-30T10:47:26.443Z,5.70
2018-06-30T10:49:54.978Z,5.77
2018-06-30T10:52:23.492Z,5.50
2018-06-30T10:54:52.006Z,4.93
2018-06-30T10:57:20.503Z,4.57
2018-06-30T10:59:49.035Z,4.93
2018-06-30T11:02:17.525Z,5.37
2018-06-30T11:04:46.047Z,5.27
2018-06-30T11:07:14.682Z,4.83
2018-06-30T11:09:43.192Z,4.67
2018-06-30T11:12:11.957Z,4.80
2018-06-30T11:14:40.484Z,4.87
2018-06-30T11:17:09.030Z,4.67
2018-06-30T11:19:37.591Z,4.80
2018-06-30T11:22:06.261Z,4.50
2018-06-30T11:24:34.745Z,3.93
2018-06-30T11:27:03.285Z,5.07
2018-06-30T11:29:31.871Z,4.80
2018-06-30T11:32:00.322Z,4.73
2018-06-30T11:34:28.870Z,4.43
2018-06-30T11:36:57.375Z,4.30
2018-06-30T11:39:25.926Z,4.43
2018-06-30T11:41:54.457Z,4.13
2018-06-30T11:44:22.980Z,5.03
2018-06-30T11:46:51.506Z,4.60
2018-06-30T11:49:20.012Z,5.47
2018-06-30T11:51:48.523Z,4.57
2018-06-30T11:54:17.015Z,3.77
2018-06-30T11:56:45.539Z,5.10
2018-06-30T11:59:14.047Z,4.50
2018-06-30T12:01:42.802Z,5.10
2018-06-30T12:04:11.399Z,4.97
2018-06-30T12:06:39.919Z,4.80
2018-06-30T12:09:09.733Z,4.97
2018-06-30T12:11:38.397Z,5.27
2018-06-30T12:14:07.569Z,4.90
2018-06-30T12:16:36.030Z,4.97
2018-06-30T12:19:04.766Z,4.43
2018-06-30T12:21:33.329Z,4.13
2018-06-30T12:24:01.831Z,4.57
2018-06-30T12:26:30.335Z,4.43
2018-06-30T12:28:58.856Z,5.20
2018-06-30T12:31:27.390Z,5.03
2018-06-30T12:33:55.877Z,5.10
2018-06-30T12:36:24.395Z,4.70
2018-06-30T12:38:52.912Z,4.10
2018-06-30T12:41:21.453Z,4.10
2018-06-30T12:43:49.964Z,4.40
2018-06-30T12:46:18.517Z,5.20
2018-06-30T12:48:47.030Z,5.13
2018-06-30T12:51:16.082Z,5.70
2018-06-30T12:53:45.534Z,5.67
2018-06-30T12:56:14.104Z,5.13
2018-06-30T12:58:42.646Z,5.00
2018-06-30T13:01:11.146Z,5.40
2018-06-30T13:03:39.677Z,4.93
2018-06-30T13:06:08.238Z,4.27
2018-06-30T13:08:36.720Z,4.33
2018-06-30T13:11:05.324Z,5.53
2018-06-30T13:13:33.875Z,4.77
2018-06-30T13:16:02.366Z,5.33
2018-06-30T13:18:30.926Z,4.50
2018-06-30T13:20:59.519Z,4.50
2018-06-30T13:23:28.557Z,5.00
2018-06-30T13:25:57.237Z,4.60
2018-06-30T13:28:25.772Z,4.30
2018-06-30T13:30:54.335Z,4.30
2018-06-30T13:33:22.888Z,4.30
2018-06-30T13:35:51.421Z,3.80
2018-06-30T13:38:21.194Z,3.50
2018-06-30T13:40:56.288Z,3.83
2018-06-30T13:43:24.811Z,3.40
2018-06-30T13:45:53.414Z,3.87
2018-06-30T13:48:21.976Z,3.77
2018-06-30T13:50:50.617Z,4.23
2018-06-30T13:53:19.244Z,4.17
2018-06-30T13:55:47.743Z,4.30
2018-06-30T13:58:16.261Z,4.47
2018-06-30T14:00:44.897Z,4.40
2018-06-30T14:03:13.441Z,4.20
2018-06-30T14:05:42.037Z,4.63
2018-06-30T14:08:10.565Z,4.70
2018-06-30T14:10:39.131Z,3.90
2018-06-30T14:13:07.698Z,3.77
2018-06-30T14:15:36.279Z,4.73
2018-06-30T14:18:06.504Z,4.30
2018-06-30T14:20:35.069Z,4.40
2018-06-30T14:23:03.629Z,4.50
2018-06-30T14:25:32.192Z,4.40
2018-06-30T14:28:00.724Z,5.00
2018-06-30T14:30:29.240Z,3.90
2018-06-30T14:32:57.800Z,4.57
2018-06-30T14:35:26.368Z,4.67
2018-06-30T14:37:54.933Z,4.00
2018-06-30T14:40:23.447Z,4.70
2018-06-30T14:42:52.002Z,4.00
2018-06-30T14:45:20.625Z,4.37
2018-06-30T14:47:49.140Z,4.67
2018-06-30T14:50:17.758Z,3.80
2018-06-30T14:52:46.303Z,4.20
2018-06-30T14:55:14.521Z,3.70
2018-06-30T14:57:43.039Z,3.67
2018-06-30T15:00:11.670Z,3.87
2018-06-30T15:02:43.389Z,3.60
2018-06-30T15:05:12.427Z,3.20
2018-06-30T15:07:40.900Z,3.47
2018-06-30T15:10:10.099Z,4.30
2018-06-30T15:12:38.735Z,3.80
2018-06-30T15:15:07.447Z,4.40
2018-06-30T15:17:36.834Z,4.00
2018-06-30T15:20:05.438Z,4.00
2018-06-30T15:22:33.982Z,4.27
2018-06-30T15:25:02.550Z,4.30
2018-06-30T15:27:31.108Z,3.90
2018-06-30T15:29:59.673Z,4.40
2018-06-30T15:32:28.213Z,3.87
2018-06-30T15:34:56.775Z,3.60
2018-06-30T15:37:25.304Z,4.07
2018-06-30T15:39:53.782Z,4.67
2018-06-30T15:42:22.330Z,4.20
2018-06-30T15:44:50.826Z,5.00
2018-06-30T15:47:19.375Z,4.70
2018-06-30T15:49:48.900Z,4.47
2018-06-30T15:52:17.423Z,4.50
2018-06-30T15:54:45.960Z,5.17
2018-06-30T15:57:14.541Z,4.90
2018-06-30T15:59:43.090Z,5.10
2018-06-30T16:02:11.620Z,5.00
2018-06-30T16:04:40.165Z,5.40
2018-06-30T16:07:08.664Z,5.17
2018-06-30T16:09:37.198Z,4.70
2018-06-30T16:12:05.826Z,5.53
2018-06-30T16:14:34.316Z,5.70
2018-06-30T16:17:02.916Z,6.27
2018-06-30T16:19:31.510Z,5.40
2018-06-30T16:22:00.057Z,5.27
2018-06-30T16:24:28.684Z,5.80
2018-06-30T16:26:57.256Z,6.07
2018-06-30T16:29:25.817Z,6.77
2018-06-30T16:31:54.325Z,6.90
2018-06-30T16:34:23.074Z,6.60
2018-06-30T16:36:51.667Z,6.10
2018-06-30T16:39:20.268Z,8.33
2018-06-30T16:41:48.795Z,7.63
2018-06-30T16:44:17.319Z,12.20
2018-06-30T16:46:45.891Z,7.80
2018-06-30T16:49:14.518Z,6.83
2018-06-30T16:51:42.969Z,7.40
2018-06-30T16:54:11.440Z,7.07
2018-06-30T16:56:39.988Z,7.27
2018-06-30T16:59:08.530Z,7.80
2018-06-30T17:01:37.040Z,8.03
2018-06-30T17:04:05.617Z,7.40
2018-06-30T17:06:34.115Z,8.73
2018-06-30T17:09:02.666Z,8.00
2018-06-30T17:11:31.266Z,8.50
2018-06-30T17:13:59.775Z,7.90
2018-06-30T17:16:28.344Z,8.43
2018-06-30T17:18:56.904Z,7.67
2018-06-30T17:21:25.487Z,7.73
2018-06-30T17:23:53.997Z,7.73
2018-06-30T17:26:22.587Z,8.33
2018-06-30T17:28:51.362Z,7.70
2018-06-30T17:31:19.919Z,9.40
2018-06-30T17:33:48.462Z,8.33
2018-06-30T17:36:16.987Z,8.73
2018-06-30T17:38:45.519Z,8.57
2018-06-30T17:41:14.042Z,9.10
2018-06-30T17:43:42.606Z,8.10
2018-06-30T17:46:11.174Z,7.90
2018-06-30T17:48:39.742Z,8.27
2018-06-30T17:51:08.288Z,8.20
2018-06-30T17:53:36.821Z,8.43
2018-06-30T17:56:05.673Z,7.73
2018-06-30T17:58:34.252Z,7.70
2018-06-30T18:01:02.930Z,8.40
2018-06-30T18:03:31.617Z,7.53
2018-06-30T18:06:00.131Z,6.90
2018-06-30T18:08:28.652Z,8.00
2018-06-30T18:10:57.622Z,7.70
2018-06-30T18:13:26.172Z,7.80
2018-06-30T18:15:54.709Z,9.00
2018-06-30T18:18:23.316Z,7.60
2018-06-30T18:20:51.915Z,8.60
2018-06-30T18:23:20.442Z,8.80
2018-06-30T18:25:48.960Z,8.17
2018-06-30T18:28:17.481Z,8.10
2018-06-30T18:30:45.987Z,8.50
2018-06-30T18:33:14.529Z,8.33
2018-06-30T18:35:43.033Z,8.30
2018-06-30T18:38:11.600Z,7.80
2018-06-30T18:40:40.253Z,8.57
2018-06-30T18:43:08.798Z,7.93
2018-06-30T18:45:37.656Z,9.00
2018-06-30T18:48:05.934Z,9.07
2018-06-30T18:50:34.460Z,8.93
2018-06-30T18:53:03.079Z,9.37
2018-06-30T18:55:31.677Z,9.20
2018-06-30T18:58:00.407Z,8.30
2018-06-30T19:00:28.947Z,8.97
2018-06-30T19:02:57.542Z,8.50
2018-06-30T19:05:27.780Z,8.53
2018-06-30T19:07:56.366Z,8.50
2018-06-30T19:10:25.056Z,9.60
2018-06-30T19:12:53.521Z,8.20
2018-06-30T19:15:22.089Z,9.07
2018-06-30T19:17:50.637Z,8.40
2018-06-30T19:20:19.177Z,9.27
2018-06-30T19:22:48.530Z,9.17
2018-06-30T19:25:17.060Z,8.67
2018-06-30T19:27:45.633Z,8.93
2018-06-30T19:30:14.217Z,8.13
2018-06-30T19:32:42.755Z,8.47
2018-06-30T19:35:11.356Z,7.80
2018-06-30T19:37:39.869Z,8.07
2018-06-30T19:40:08.462Z,7.23
2018-06-30T19:42:37.004Z,7.93
2018-06-30T19:45:05.599Z,7.23
2018-06-30T19:47:34.175Z,7.10
2018-06-30T19:50:02.681Z,7.33
2018-06-30T19:52:31.206Z,7.03
2018-06-30T19:54:59.805Z,6.53
2018-06-30T19:57:28.388Z,6.77
2018-06-30T19:59:56.850Z,6.30
2018-06-30T20:02:25.382Z,5.47
2018-06-30T20:04:53.908Z,6.07
2018-06-30T20:07:22.438Z,6.07
2018-06-30T20:09:51.073Z,5.70
2018-06-30T20:12:19.558Z,5.03
2018-06-30T20:14:48.196Z,4.80
2018-06-30T20:17:16.761Z,4.73
2018-06-30T20:19:45.304Z,4.83
2018-06-30T20:22:13.881Z,5.23
2018-06-30T20:24:42.461Z,5.00
2018-06-30T20:27:11.037Z,4.80
2018-06-30T20:29:39.540Z,4.50
2018-06-30T20:32:08.082Z,4.53
2018-06-30T20:34:36.615Z,4.37
2018-06-30T20:37:05.517Z,4.50
2018-06-30T20:39:34.137Z,4.40
2018-06-30T20:42:02.660Z,5.07
2018-06-30T20:44:31.165Z,4.40
2018-06-30T20:46:59.780Z,5.50
2018-06-30T20:49:28.343Z,4.73
2018-06-30T20:51:56.897Z,4.60
2018-06-30T20:54:25.465Z,4.67
2018-06-30T20:56:54.020Z,4.10
2018-06-30T20:59:22.727Z,4.27
2018-06-30T21:01:51.322Z,4.73
2018-06-30T21:04:19.843Z,3.90
2018-06-30T21:06:48.373Z,4.70
2018-06-30T21:09:16.926Z,4.33
2018-06-30T21:11:45.106Z,3.90
2018-06-30T21:14:13.660Z,4.50
2018-06-30T21:16:42.207Z,3.97
2018-06-30T21:19:10.750Z,4.03
2018-06-30T21:21:39.290Z,3.40
2018-06-30T21:24:07.904Z,4.20
2018-06-30T21:26:36.439Z,3.87
2018-06-30T21:29:05.276Z,3.73
2018-06-30T21:31:33.831Z,3.80
2018-06-30T21:34:02.360Z,3.60
2018-06-30T21:36:30.923Z,3.33
2018-06-30T21:38:59.468Z,2.77
2018-06-30T21:41:27.991Z,3.37
2018-06-30T21:43:56.519Z,2.80
2018-06-30T21:46:25.058Z,2.87
2018-06-30T21:48:53.580Z,3.10
2018-06-30T21:51:22.110Z,2.87
2018-06-30T21:53:50.676Z,2.60
2018-06-30T21:56:21.650Z,3.63
2018-06-30T21:58:50.147Z,3.13
2018-06-30T22:01:24.471Z,3.97
2018-06-30T22:03:54.029Z,2.00
2018-06-30T22:06:22.567Z,3.17
2018-06-30T22:08:51.117Z,2.90
2018-06-30T22:11:19.759Z,2.30
2018-06-30T22:13:48.294Z,2.83
2018-06-30T22:16:16.477Z,2.70
2018-06-30T22:18:45.121Z,2.63
2018-06-30T22:21:13.612Z,2.00
2018-06-30T22:23:42.169Z,2.53
2018-06-30T22:26:10.724Z,2.67
2018-06-30T22:28:39.267Z,2.40
2018-06-30T22:31:07.803Z,2.43
2018-06-30T22:33:36.365Z,2.07
2018-06-30T22:36:05.046Z,2.50
2018-06-30T22:38:33.617Z,2.20
2018-06-30T22:41:02.213Z,2.33
2018-06-30T22:43:30.724Z,2.73
2018-06-30T22:45:59.274Z,2.90
2018-06-30T22:48:27.786Z,3.10
2018-06-30T22:50:56.467Z,2.63
2018-06-30T22:53:25.056Z,2.93
2018-06-30T22:55:53.608Z,2.30
2018-06-30T22:58:22.173Z,2.67
2018-06-30T23:00:50.691Z,2.63
2018-06-30T23:03:19.257Z,3.30
2018-06-30T23:05:47.777Z,2.37
2018-06-30T23:08:16.318Z,2.30
2018-06-30T23:10:44.845Z,2.50
2018-06-30T23:13:13.413Z,2.70
2018-06-30T23:15:42.052Z,2.60
2018-06-30T23:18:10.572Z,2.40
2018-06-30T23:20:39.144Z,2.23
2018-06-30T23:23:08.844Z,2.20
2018-06-30T23:25:38.011Z,2.47
2018-06-30T23:28:06.967Z,2.20
2018-06-30T23:30:35.852Z,2.73
2018-06-30T23:33:04.460Z,2.40
2018-06-30T23:35:33.740Z,2.53
2018-06-30T23:38:03.140Z,2.30
2018-06-30T23:40:31.792Z,2.17
2018-06-30T23:43:00.353Z,2.17
2018-06-30T23:45:28.878Z,2.40
2018-06-30T23:47:57.485Z,2.40
2018-06-30T23:50:26.054Z,2.50
2018-06-30T23:52:54.644Z,2.83
2018-06-30T23:55:23.260Z,2.13
2018-06-30T23:57:51.791Z,2.50
